Time;durP1;ratioP1;P1;durP2;ratioP2;P2;SDS_P1;SDS_P2;PMS_P1;PMS_P2;Temp;Humidity;BMP_temperature;BMP_pressure;BME280_temperature;BME280_humidity;BME280_pressure;Samples;Min_cycle;Max_cycle;Signal;HPM_P1;HPM_P2
2021/12/18 00:01:47;;;;;;;31.92;14.98;;;;;;;6.68;100.00;103875.34;5073830;28;20032;-67
2021/12/18 00:04:12;;;;;;;31.70;15.57;;;;;;;6.70;100.00;103876.34;5073636;28;20594;-68
2021/12/18 00:06:38;;;;;;;33.42;15.68;;;;;;;6.68;100.00;103880.59;5073643;28;20039;-71
2021/12/18 00:09:04;;;;;;;33.17;15.90;;;;;;;6.67;100.00;103878.75;5073995;28;20021;-69
2021/12/18 00:11:29;;;;;;;33.42;14.80;;;;;;;6.66;100.00;103869.97;5073627;28;20028;-70
2021/12/18 00:13:55;;;;;;;34.10;15.52;;;;;;;6.65;100.00;103868.16;5073879;28;20498;-69
2021/12/18 00:16:20;;;;;;;33.53;15.23;;;;;;;6.66;100.00;103866.44;5073529;28;20020;-69
2021/12/18 00:18:49;;;;;;;33.25;15.27;;;;;;;6.65;100.00;103876.03;5073484;28;20029;-70
2021/12/18 00:21:17;;;;;;;33.03;14.95;;;;;;;6.66;100.00;103869.06;5073427;28;20078;-69
2021/12/18 00:23:43;;;;;;;34.75;15.70;;;;;;;6.65;100.00;103873.41;5073570;28;20028;-69
2021/12/18 00:26:08;;;;;;;33.83;15.00;;;;;;;6.63;100.00;103861.88;5073369;28;20078;-68
2021/12/18 00:28:34;;;;;;;33.28;14.40;;;;;;;6.63;100.00;103864.50;5073189;28;20039;-70
2021/12/18 00:30:59;;;;;;;31.80;14.55;;;;;;;6.62;100.00;103857.41;5071940;28;20044;-69
2021/12/18 00:33:25;;;;;;;30.67;13.15;;;;;;;6.62;100.00;103865.31;5073221;28;20036;-70
2021/12/18 00:35:50;;;;;;;33.28;13.73;;;;;;;6.61;100.00;103867.03;5073285;28;20029;-69
2021/12/18 00:38:15;;;;;;;30.52;13.43;;;;;;;6.60;100.00;103848.53;5073614;28;20017;-70
2021/12/18 00:40:46;;;;;;;29.50;13.05;;;;;;;6.57;100.00;103846.59;5073099;28;20020;-70
2021/12/18 00:43:27;;;;;;;28.25;12.50;;;;;;;6.58;100.00;103856.31;5072989;28;20032;-70
2021/12/18 00:45:53;;;;;;;28.73;12.57;;;;;;;6.57;100.00;103854.47;5072006;28;20042;-69
2021/12/18 00:48:19;;;;;;;28.35;11.80;;;;;;;6.57;100.00;103846.59;5073146;28;20036;-70
2021/12/18 00:50:44;;;;;;;29.75;12.75;;;;;;;6.56;100.00;103850.03;5072908;28;20024;-68
2021/12/18 00:53:10;;;;;;;29.05;11.80;;;;;;;6.54;100.00;103849.03;5072372;28;20028;-68
2021/12/18 00:55:37;;;;;;;28.00;11.93;;;;;;;6.55;100.00;103844.66;5073304;28;20047;-70
2021/12/18 00:58:03;;;;;;;28.10;11.60;;;;;;;6.53;100.00;103841.94;5072834;28;20154;-69
2021/12/18 01:00:29;;;;;;;27.40;10.88;;;;;;;6.54;100.00;103846.38;5072851;28;20033;-69
2021/12/18 01:03:00;;;;;;;26.83;10.32;;;;;;;6.54;100.00;103846.38;5072982;28;20045;-69
2021/12/18 01:05:27;;;;;;;26.42;10.30;;;;;;;6.53;100.00;103844.56;5069151;28;20039;-70
2021/12/18 01:07:55;;;;;;;26.38;9.98;;;;;;;6.52;100.00;103841.81;5072787;28;20054;-69
2021/12/18 01:12:58;;;;;;;26.58;10.50;;;;;;;6.51;100.00;103840.94;5069247;28;20499;-69
2021/12/18 01:15:30;;;;;;;25.67;10.00;;;;;;;6.53;100.00;103835.78;5072613;28;20027;-69
2021/12/18 01:23:24;;;;;;;24.45;9.00;;;;;;;6.50;100.00;103831.22;5069015;28;20101;-68
2021/12/18 01:25:50;;;;;;;24.75;8.85;;;;;;;6.50;100.00;103831.22;5072628;28;20028;-70
2021/12/18 01:28:16;;;;;;;26.10;9.75;;;;;;;6.51;100.00;103832.09;5072563;28;20016;-69
2021/12/18 01:30:41;;;;;;;24.23;9.30;;;;;;;6.51;100.00;103833.03;5072895;28;20035;-69
2021/12/18 01:33:07;;;;;;;25.40;9.23;;;;;;;6.50;100.00;103835.56;5072696;28;20021;-70
2021/12/18 01:35:32;;;;;;;25.92;9.70;;;;;;;6.52;100.00;103833.94;5072464;28;20039;-70
2021/12/18 01:37:58;;;;;;;25.38;9.30;;;;;;;6.52;100.00;103837.47;5072671;28;20369;-70
2021/12/18 01:40:24;;;;;;;26.35;9.60;;;;;;;6.53;100.00;103838.41;5066831;28;20028;-70
2021/12/18 01:53:21;;;;;;;26.00;10.02;;;;;;;6.55;100.00;103850.84;5072710;28;20036;-69
2021/12/18 01:55:49;;;;;;;24.63;9.13;;;;;;;6.54;100.00;103846.38;5072445;28;20016;-71
2021/12/18 01:58:20;;;;;;;25.77;9.48;;;;;;;6.53;100.00;103852.44;5072389;28;20375;-68
2021/12/18 02:00:46;;;;;;;26.42;10.00;;;;;;;6.50;100.00;103854.88;5072308;28;20029;-70
2021/12/18 02:03:11;;;;;;;26.48;9.75;;;;;;;6.51;100.00;103858.38;5072150;28;20506;-69
2021/12/18 02:05:40;;;;;;;27.55;10.07;;;;;;;6.49;100.00;103849.50;5069663;28;20025;-69
2021/12/18 02:08:06;;;;;;;26.77;10.52;;;;;;;6.52;100.00;103861.13;5074924;28;20039;-70
2021/12/18 02:10:43;;;;;;;27.77;10.98;;;;;;;6.50;100.00;103861.84;5076058;28;20032;-72
2021/12/18 02:21:18;;;;;;;28.15;11.07;;;;;;;6.45;100.00;103851.94;5075944;28;20047;-71
2021/12/18 02:23:44;;;;;;;28.27;11.18;;;;;;;6.45;100.00;103851.94;5076004;28;20025;-71
2021/12/18 02:26:11;;;;;;;27.92;10.95;;;;;;;6.44;100.00;103850.09;5076008;28;20024;-71
2021/12/18 02:28:36;;;;;;;28.98;11.07;;;;;;;6.44;100.00;103841.31;5075578;28;20025;-72
2021/12/18 02:31:02;;;;;;;28.15;11.32;;;;;;;6.43;100.00;103850.88;5075724;28;20032;-72
2021/12/18 02:33:28;;;;;;;29.13;11.02;;;;;;;6.43;100.00;103837.75;5075664;28;20138;-72
2021/12/18 02:35:56;;;;;;;28.60;11.18;;;;;;;6.42;100.00;103837.63;5075515;28;20024;-72
2021/12/18 02:41:39;;;;;;;30.00;11.70;;;;;;;6.41;100.00;103836.75;5072902;28;20036;-72
2021/12/18 02:44:10;;;;;;;28.40;10.93;;;;;;;6.41;100.00;103834.13;5071675;28;20024;-69
2021/12/18 02:46:37;;;;;;;28.45;11.10;;;;;;;6.40;100.00;103831.38;5071633;28;20520;-72
2021/12/18 02:49:14;;;;;;;29.48;11.77;;;;;;;6.42;100.00;103837.63;5075342;28;20031;-72
2021/12/18 02:51:40;;;;;;;31.27;13.23;;;;;;;6.44;100.00;103828.16;5071792;28;20108;-72
2021/12/18 02:54:06;;;;;;;30.52;13.15;;;;;;;6.39;100.00;103827.84;5074363;28;20086;-69
2021/12/18 02:56:32;;;;;;;29.27;12.38;;;;;;;6.38;100.00;103819.88;5075064;28;20421;-71
2021/12/18 02:59:04;;;;;;;29.75;12.52;;;;;;;6.37;100.00;103824.19;5075351;28;20028;-71
2021/12/18 03:01:30;;;;;;;27.60;11.10;;;;;;;6.38;100.00;103820.78;5073855;28;20043;-67
2021/12/18 03:03:58;;;;;;;28.70;12.32;;;;;;;6.38;100.00;103817.25;5075111;28;20072;-70
2021/12/18 03:06:37;;;;;;;28.65;11.10;;;;;;;6.36;100.00;103816.22;5074735;28;20387;-68
2021/12/18 03:22:56;;;;;;;29.00;12.35;;;;;;;6.30;100.00;103810.53;5075019;28;20510;-71
2021/12/18 03:25:28;;;;;;;28.83;12.43;;;;;;;6.28;100.00;103800.81;5073045;28;20391;-70
2021/12/18 03:27:54;;;;;;;29.17;12.35;;;;;;;6.27;100.00;103805.97;5074835;28;20025;-68
2021/12/18 03:30:21;;;;;;;30.55;12.95;;;;;;;6.27;100.00;103801.63;5074584;28;20464;-69
2021/12/18 03:32:47;;;;;;;30.92;13.55;;;;;;;6.26;100.00;103799.81;5074715;28;20021;-67
2021/12/18 03:35:14;;;;;;;32.05;14.27;;;;;;;6.25;100.00;103803.25;5074668;28;20028;-67
2021/12/18 03:37:40;;;;;;;31.45;13.70;;;;;;;6.25;100.00;103803.25;5074366;28;20056;-70
2021/12/18 03:40:09;;;;;;;31.70;13.35;;;;;;;6.24;100.00;103806.66;5074180;28;20062;-67
2021/12/18 03:42:35;;;;;;;29.92;12.48;;;;;;;6.27;100.00;103812.13;5070282;28;20537;-67
2021/12/18 03:45:02;;;;;;;31.40;13.20;;;;;;;6.24;100.00;103811.91;5074227;28;20083;-68
2021/12/18 03:47:27;;;;;;;30.33;12.93;;;;;;;6.28;100.00;103808.69;5074164;28;20024;-66
2021/12/18 03:49:53;;;;;;;31.48;13.60;;;;;;;6.24;100.00;103817.16;5074350;28;20024;-67
2021/12/18 03:52:18;;;;;;;30.38;13.52;;;;;;;6.26;100.00;103815.59;5074112;28;20029;-66
2021/12/18 03:54:44;;;;;;;31.10;13.20;;;;;;;6.24;100.00;103817.16;5074162;28;20043;-67
2021/12/18 03:57:09;;;;;;;30.25;12.85;;;;;;;6.24;100.00;103821.53;5074283;28;20025;-67
2021/12/18 03:59:34;;;;;;;30.60;12.70;;;;;;;6.25;100.00;103819.00;5069924;28;20032;-67
2021/12/18 04:02:00;;;;;;;30.70;12.63;;;;;;;6.23;100.00;103814.44;5073805;28;20050;-67
2021/12/18 04:04:25;;;;;;;30.83;12.13;;;;;;;6.24;100.00;103811.00;5073787;28;20102;-66
2021/12/18 04:06:51;;;;;;;30.35;12.77;;;;;;;6.24;100.00;103818.91;5073712;28;20072;-67
2021/12/18 04:09:16;;;;;;;28.60;11.70;;;;;;;6.24;100.00;103811.00;5074138;28;20099;-66
2021/12/18 04:11:42;;;;;;;28.55;11.18;;;;;;;6.23;100.00;103817.06;5073544;28;20032;-66
2021/12/18 04:14:10;;;;;;;30.08;12.20;;;;;;;6.21;100.00;103822.22;5106123;28;20035;-67
2021/12/18 04:16:36;;;;;;;29.23;12.40;;;;;;;6.20;100.00;103819.47;5069720;28;20024;-67
2021/12/18 04:19:01;;;;;;;30.30;11.82;;;;;;;6.17;100.00;103812.28;5073545;28;20101;-66
2021/12/18 04:21:28;;;;;;;27.52;11.23;;;;;;;6.17;100.00;103817.53;5073337;28;20031;-67
2021/12/18 04:23:54;;;;;;;30.20;12.45;;;;;;;6.16;100.00;103813.13;5073545;28;20025;-66
2021/12/18 04:26:19;;;;;;;29.00;12.18;;;;;;;6.15;100.00;103819.16;5073242;28;20366;-66
2021/12/18 04:28:45;;;;;;;29.67;12.25;;;;;;;6.14;100.00;103809.47;5073371;28;20054;-66
2021/12/18 04:31:10;;;;;;;29.25;11.85;;;;;;;6.15;100.00;103815.63;5073527;28;20021;-66
2021/12/18 04:33:35;;;;;;;30.30;12.65;;;;;;;6.14;100.00;103809.47;5073259;28;20036;-66
2021/12/18 04:36:01;;;;;;;29.00;12.25;;;;;;;6.15;100.00;103813.91;5073146;28;20024;-67
2021/12/18 04:38:26;;;;;;;28.95;11.57;;;;;;;6.13;100.00;103812.91;5073402;28;20105;-67
2021/12/18 04:40:52;;;;;;;28.20;11.25;;;;;;;6.13;100.00;103817.22;5072907;28;20036;-67
2021/12/18 04:43:17;;;;;;;29.38;12.00;;;;;;;6.10;100.00;103813.59;5073270;28;20384;-67
2021/12/18 04:45:43;;;;;;;29.02;11.90;;;;;;;6.13;100.00;103819.84;5073046;28;20098;-67
2021/12/18 04:48:08;;;;;;;29.55;12.32;;;;;;;6.13;100.00;103823.41;5073034;28;20037;-67
2021/12/18 04:50:34;;;;;;;28.88;11.93;;;;;;;6.11;100.00;103810.16;5073237;28;20028;-68
2021/12/18 04:52:59;;;;;;;28.55;11.68;;;;;;;6.12;100.00;103816.34;5073132;28;20033;-67
2021/12/18 04:55:24;;;;;;;31.05;12.95;;;;;;;6.11;100.00;103825.91;5073142;28;20024;-68
2021/12/18 04:57:52;;;;;;;30.75;12.73;;;;;;;6.13;100.00;103823.41;5072930;28;20086;-67
2021/12/18 05:00:20;;;;;;;30.10;12.13;;;;;;;6.12;100.00;103824.22;5072776;28;20036;-68
2021/12/18 05:02:49;;;;;;;30.38;11.73;;;;;;;6.14;100.00;103824.31;5072818;28;20048;-68
2021/12/18 05:05:14;;;;;;;29.80;12.10;;;;;;;6.14;100.00;103825.22;5073016;28;20025;-67
2021/12/18 05:07:41;;;;;;;28.05;10.75;;;;;;;6.13;100.00;103830.38;5072986;28;20082;-71
2021/12/18 05:10:08;;;;;;;29.98;12.15;;;;;;;6.12;100.00;103837.34;5068814;28;20102;-71
2021/12/18 05:12:34;;;;;;;31.83;12.85;;;;;;;6.10;100.00;103831.97;5072830;28;20032;-72
2021/12/18 05:14:59;;;;;;;33.40;13.60;;;;;;;6.06;100.00;103829.94;5073131;28;20029;-72
2021/12/18 05:17:25;;;;;;;34.80;13.95;;;;;;;6.04;100.00;103830.63;5072620;28;20103;-72
2021/12/18 05:19:50;;;;;;;35.28;14.15;;;;;;;6.03;100.00;103831.41;5071444;28;20028;-71
2021/12/18 05:22:16;;;;;;;35.05;13.65;;;;;;;6.02;100.00;103829.63;5072701;28;20028;-72
2021/12/18 05:24:41;;;;;;;34.65;14.23;;;;;;;6.00;100.00;103833.84;5072766;28;20091;-72
2021/12/18 05:27:06;;;;;;;35.63;13.85;;;;;;;6.03;100.00;103834.06;5072661;28;20024;-72
2021/12/18 05:29:32;;;;;;;33.95;13.57;;;;;;;5.99;100.00;103834.66;5072470;28;20021;-67
2021/12/18 05:31:57;;;;;;;34.92;13.75;;;;;;;6.02;100.00;103834.88;5072367;28;20016;-72
2021/12/18 05:34:25;;;;;;;35.72;14.00;;;;;;;6.03;100.00;103834.97;5072570;28;20043;-71
2021/12/18 05:39:23;;;;;;;36.80;14.15;;;;;;;6.05;100.00;103829.84;5072744;28;20040;-72
2021/12/18 05:41:50;;;;;;;36.75;13.93;;;;;;;6.06;100.00;103831.66;5075123;28;20032;-71
2021/12/18 05:44:17;;;;;;;38.05;14.60;;;;;;;6.04;100.00;103828.00;5076734;28;20103;-71
2021/12/18 05:46:44;;;;;;;39.40;15.30;;;;;;;6.09;100.00;103837.13;5076419;28;20031;-70
2021/12/18 05:49:09;;;;;;;39.47;15.40;;;;;;;6.08;100.00;103830.03;5076745;28;20073;-68
2021/12/18 05:51:34;;;;;;;36.85;14.23;;;;;;;6.09;100.00;103835.41;5076349;28;20028;-67
2021/12/18 05:54:00;;;;;;;38.50;14.52;;;;;;;6.06;100.00;103829.03;5076664;28;20012;-67
2021/12/18 05:56:25;;;;;;;36.75;14.27;;;;;;;6.05;100.00;103833.38;5076294;28;20082;-67
2021/12/18 05:58:51;;;;;;;37.70;14.15;;;;;;;6.04;100.00;103828.00;5076332;28;20038;-66
2021/12/18 06:01:18;;;;;;;36.80;14.23;;;;;;;6.05;100.00;103832.47;5076220;28;20051;-67
2021/12/18 06:03:44;;;;;;;36.70;14.10;;;;;;;6.06;100.00;103829.94;5076153;28;20079;-68
2021/12/18 06:06:10;;;;;;;37.58;14.57;;;;;;;6.05;100.00;103841.25;5076207;28;20115;-67
2021/12/18 06:08:36;;;;;;;39.00;15.05;;;;;;;6.04;100.00;103830.63;5076042;28;20032;-66
2021/12/18 06:11:08;;;;;;;35.97;13.48;;;;;;;6.03;100.00;103837.59;5076396;28;20031;-67
2021/12/18 06:13:34;;;;;;;35.10;13.93;;;;;;;6.04;100.00;103833.25;5076250;28;20039;-68
2021/12/18 06:15:59;;;;;;;34.83;12.85;;;;;;;6.04;100.00;103834.19;5075949;28;20279;-66
2021/12/18 06:18:25;;;;;;;35.75;13.55;;;;;;;6.02;100.00;103832.25;5108478;28;20036;-66
2021/12/18 06:20:50;;;;;;;35.15;13.95;;;;;;;6.00;100.00;103833.84;5074315;28;20103;-66
2021/12/18 06:23:15;;;;;;;38.20;13.63;;;;;;;6.01;100.00;103830.41;5075708;28;20103;-67
2021/12/18 06:25:41;;;;;;;37.40;14.77;;;;;;;6.01;100.00;103828.69;5075891;28;20036;-67
2021/12/18 06:28:06;;;;;;;38.35;14.63;;;;;;;6.02;100.00;103834.88;5075578;28;20116;-66
2021/12/18 06:30:31;;;;;;;39.60;16.27;;;;;;;6.01;100.00;103833.94;5075805;28;20116;-67
2021/12/18 06:32:57;;;;;;;38.08;14.60;;;;;;;6.00;100.00;103834.78;5075996;28;20028;-67
2021/12/18 06:35:22;;;;;;;39.17;14.50;;;;;;;5.99;100.00;103829.41;5075561;28;20087;-66
2021/12/18 06:37:47;;;;;;;40.20;14.40;;;;;;;5.99;100.00;103826.78;5075947;28;20028;-67
2021/12/18 06:40:13;;;;;;;39.55;14.60;;;;;;;5.96;100.00;103831.78;5075420;28;20429;-66
2021/12/18 06:42:39;;;;;;;39.20;14.43;;;;;;;5.96;100.00;103834.41;5075363;28;20024;-67
2021/12/18 06:45:05;;;;;;;38.78;13.90;;;;;;;6.01;100.00;103825.16;5075704;28;20379;-67
2021/12/18 06:47:31;;;;;;;40.05;14.02;;;;;;;6.05;100.00;103821.97;5073640;28;20036;-67
2021/12/18 06:49:56;;;;;;;37.28;13.80;;;;;;;6.00;100.00;103825.97;5075233;28;20063;-67
2021/12/18 06:52:22;;;;;;;37.55;13.25;;;;;;;5.99;100.00;103825.06;5075334;28;20052;-66
2021/12/18 06:54:47;;;;;;;40.78;15.15;;;;;;;5.98;100.00;103827.56;5075414;28;20104;-67
2021/12/18 06:57:12;;;;;;;36.67;13.32;;;;;;;5.96;100.00;103823.91;5075148;28;20059;-68
2021/12/18 06:59:38;;;;;;;38.03;13.65;;;;;;;5.96;100.00;103822.19;5075571;28;20075;-69
2021/12/18 07:02:03;;;;;;;35.72;12.95;;;;;;;5.97;100.00;103829.31;5075160;28;20056;-70
2021/12/18 07:04:28;;;;;;;37.45;13.60;;;;;;;5.97;100.00;103823.09;5074869;28;20071;-71
2021/12/18 07:06:54;;;;;;;37.90;12.90;;;;;;;5.94;100.00;103822.06;5075213;28;20027;-71
2021/12/18 07:09:20;;;;;;;36.40;12.55;;;;;;;5.96;100.00;103829.16;5074941;28;20046;-71
2021/12/18 07:11:46;;;;;;;40.58;13.48;;;;;;;5.92;100.00;103823.66;5075128;28;20111;-72
2021/12/18 07:14:12;;;;;;;33.80;11.30;;;;;;;5.90;100.00;103820.03;5073827;28;20456;-74
2021/12/18 07:16:38;;;;;;;38.45;12.85;;;;;;;5.92;100.00;103823.66;5071774;28;20035;-71
2021/12/18 07:19:04;;;;;;;35.80;12.85;;;;;;;5.95;100.00;103822.97;5072709;28;20379;-70
2021/12/18 07:21:29;;;;;;;37.10;13.20;;;;;;;5.93;100.00;103820.25;5072397;28;20064;-72
2021/12/18 07:23:54;;;;;;;37.42;12.95;;;;;;;5.96;100.00;103822.19;5072155;28;20025;-77
2021/12/18 07:26:20;;;;;;;38.30;13.43;;;;;;;5.98;100.00;103819.69;5072083;28;20029;-72
2021/12/18 07:28:45;;;;;;;34.03;11.63;;;;;;;5.94;100.00;103818.53;5072610;28;20029;-71
2021/12/18 07:31:10;;;;;;;37.20;12.25;;;;;;;5.96;100.00;103821.28;5072286;28;20029;-71
2021/12/18 07:33:37;;;;;;;39.80;13.45;;;;;;;5.94;100.00;103821.16;5072606;28;20028;-72
2021/12/18 07:36:06;;;;;;;39.90;13.57;;;;;;;5.95;100.00;103820.34;5071539;28;20028;-71
2021/12/18 07:38:31;;;;;;;36.30;12.15;;;;;;;5.98;100.00;103822.31;5070826;28;20082;-71
2021/12/18 07:40:57;;;;;;;36.03;12.30;;;;;;;5.98;100.00;103817.97;5072647;28;20379;-71
2021/12/18 07:43:22;;;;;;;37.97;12.25;;;;;;;6.02;100.00;103834.88;5072345;28;20460;-71
2021/12/18 07:45:47;;;;;;;37.33;13.05;;;;;;;6.01;100.00;103833.94;5071917;28;20032;-69
2021/12/18 07:48:13;;;;;;;36.40;12.07;;;;;;;6.04;100.00;103835.88;5071140;28;20094;-71
2021/12/18 07:50:38;;;;;;;37.38;12.75;;;;;;;6.05;100.00;103835.09;5072160;28;20032;-70
2021/12/18 07:53:04;;;;;;;39.55;12.63;;;;;;;6.06;100.00;103837.81;5073089;28;20017;-67
2021/12/18 07:55:29;;;;;;;39.92;13.90;;;;;;;6.07;100.00;103830.84;5073817;28;20031;-68
2021/12/18 07:57:55;;;;;;;38.60;12.63;;;;;;;6.06;100.00;103832.56;5073613;28;20031;-69
2021/12/18 08:00:21;;;;;;;38.10;12.65;;;;;;;6.06;100.00;103835.19;5073391;28;20024;-67
2021/12/18 08:02:47;;;;;;;39.35;12.95;;;;;;;6.05;100.00;103837.72;5073292;28;20541;-67
2021/12/18 08:05:14;;;;;;;40.10;13.65;;;;;;;6.07;100.00;103839.66;5072204;28;20612;-70
2021/12/18 08:07:40;;;;;;;38.17;12.70;;;;;;;6.07;100.00;103828.22;5073596;28;20029;-68
2021/12/18 08:10:06;;;;;;;33.58;10.68;;;;;;;6.05;100.00;103840.34;5073635;28;20027;-69
2021/12/18 08:12:32;;;;;;;31.83;9.48;;;;;;;6.07;100.00;103841.34;5073776;28;20031;-70
2021/12/18 08:14:58;;;;;;;31.88;9.63;;;;;;;6.10;100.00;103833.69;5074066;28;20107;-67
2021/12/18 08:17:23;;;;;;;28.15;8.70;;;;;;;6.10;100.00;103836.31;5073609;28;21040;-68
2021/12/18 08:19:49;;;;;;;29.27;8.40;;;;;;;6.09;100.00;103839.75;5073828;28;20031;-70
2021/12/18 08:22:14;;;;;;;28.73;8.57;;;;;;;6.09;100.00;103842.38;5073531;28;20525;-70
2021/12/18 08:24:39;;;;;;;28.40;8.10;;;;;;;6.09;100.00;103831.88;5073696;28;20048;-70
2021/12/18 08:27:05;;;;;;;29.15;8.65;;;;;;;6.17;100.00;103832.41;5073296;28;20020;-69
2021/12/18 08:29:30;;;;;;;28.25;7.45;;;;;;;6.16;100.00;103834.13;5073567;28;20024;-70
2021/12/18 08:31:56;;;;;;;26.75;7.90;;;;;;;6.19;100.00;103831.72;5073353;28;20020;-69
2021/12/18 08:34:22;;;;;;;25.05;7.50;;;;;;;6.24;100.00;103843.44;5073288;28;20531;-68
2021/12/18 08:36:48;;;;;;;25.92;7.57;;;;;;;6.22;100.00;103834.56;5073539;28;20020;-69
2021/12/18 08:39:14;;;;;;;25.77;7.45;;;;;;;6.21;100.00;103827.47;5073191;28;20093;-69
2021/12/18 08:41:42;;;;;;;27.85;9.27;;;;;;;6.25;100.00;103824.25;5073015;28;20060;-69
2021/12/18 08:44:07;;;;;;;28.23;9.57;;;;;;;6.27;100.00;103835.78;5072064;28;20025;-67
2021/12/18 08:46:32;;;;;;;30.98;10.95;;;;;;;6.32;100.00;103829.94;5073283;28;20020;-69
2021/12/18 08:48:58;;;;;;;27.67;9.30;;;;;;;6.31;100.00;103841.28;5072983;28;20054;-69
2021/12/18 08:51:23;;;;;;;26.42;8.55;;;;;;;6.33;100.00;103842.28;5073349;28;20144;-67
2021/12/18 08:53:49;;;;;;;25.30;7.60;;;;;;;6.36;100.00;103840.75;5072868;28;20025;-67
2021/12/18 08:56:14;;;;;;;25.67;7.45;;;;;;;6.36;100.00;103839.84;5073090;28;20016;-67
2021/12/18 08:58:39;;;;;;;23.77;6.80;;;;;;;6.37;100.00;103831.19;5073063;28;20021;-68
2021/12/18 09:01:05;;;;;;;24.40;6.68;;;;;;;6.42;100.00;103832.38;5072837;28;20027;-70
2021/12/18 09:03:30;;;;;;;25.27;7.70;;;;;;;6.46;100.00;103839.69;5072735;28;20123;-68
2021/12/18 09:05:56;;;;;;;22.75;6.10;;;;;;;6.42;100.00;103841.19;5072831;28;20024;-68
2021/12/18 09:08:22;;;;;;;26.05;7.22;;;;;;;6.45;100.00;103836.16;5072741;28;20028;-67
2021/12/18 09:10:47;;;;;;;24.67;7.43;;;;;;;6.49;100.00;103833.72;5069684;28;20028;-72
2021/12/18 09:13:13;;;;;;;25.83;7.18;;;;;;;6.54;100.00;103838.50;5069773;28;20032;-71
2021/12/18 09:15:38;;;;;;;25.10;7.35;;;;;;;6.54;100.00;103838.50;5071577;28;20034;-71
2021/12/18 09:18:04;;;;;;;25.83;7.38;;;;;;;6.54;100.00;103832.31;5071498;28;20013;-68
2021/12/18 09:20:31;;;;;;;25.50;7.57;;;;;;;6.51;100.00;103833.03;5072458;28;20471;-71
2021/12/18 09:23:00;;;;;;;25.42;7.32;;;;;;;6.56;100.00;103836.88;5071266;28;20020;-72
2021/12/18 09:25:25;;;;;;;26.95;9.02;;;;;;;6.60;100.00;103836.28;5072828;28;20032;-71
2021/12/18 09:27:51;;;;;;;25.42;8.00;;;;;;;6.60;100.00;103832.75;5072321;28;20028;-71
2021/12/18 09:30:16;;;;;;;27.77;8.73;;;;;;;6.63;100.00;103839.13;5072154;28;20506;-71
2021/12/18 09:32:42;;;;;;;28.30;9.73;;;;;;;6.65;100.00;103833.97;5072046;28;20343;-68
2021/12/18 09:35:09;;;;;;;29.70;10.10;;;;;;;6.69;100.00;103837.72;5072438;28;20024;-71
2021/12/18 09:37:35;;;;;;;29.83;11.20;;;;;;;6.68;100.00;103835.91;5068364;28;20050;-71
2021/12/18 09:40:00;;;;;;;29.25;10.27;;;;;;;6.68;100.00;103846.41;5072797;28;20026;-71
2021/12/18 09:42:26;;;;;;;26.38;8.95;;;;;;;6.67;100.00;103834.06;5072288;28;20082;-67
2021/12/18 09:44:52;;;;;;;25.30;8.70;;;;;;;6.69;100.00;103835.09;5072398;28;20029;-71
2021/12/18 09:47:21;;;;;;;26.20;9.43;;;;;;;6.71;100.00;103839.63;5072618;28;20486;-71
2021/12/18 09:49:48;;;;;;;25.75;9.00;;;;;;;6.76;100.00;103832.09;5072272;28;20103;-68
2021/12/18 09:52:15;;;;;;;25.65;9.20;;;;;;;6.72;100.00;103827.41;5072266;28;20048;-68
2021/12/18 09:54:40;;;;;;;24.90;9.35;;;;;;;6.76;100.00;103830.34;5072533;28;20025;-71
2021/12/18 09:57:06;;;;;;;25.20;8.93;;;;;;;6.76;100.00;103822.47;5072303;28;20090;-71
2021/12/18 09:59:31;;;;;;;22.38;6.93;;;;;;;6.79;100.00;103824.41;5071041;28;20023;-70
2021/12/18 10:01:56;;;;;;;25.02;7.80;;;;;;;6.79;100.00;103814.78;5072645;28;20067;-68
2021/12/18 10:04:34;;;;;;;22.83;7.80;;;;;;;6.89;100.00;103824.22;5071912;28;20048;-70
2021/12/18 10:07:13;;;;;;;23.95;7.88;;;;;;;6.91;100.00;103819.03;5072236;28;20349;-69
2021/12/18 10:09:38;;;;;;;24.17;8.63;;;;;;;6.94;100.00;103809.63;5068578;28;20063;-71
2021/12/18 10:12:19;;;;;;;22.92;7.30;;;;;;;6.97;100.00;103819.44;5072369;28;20436;-70
2021/12/18 10:14:47;;;;;;;23.38;7.10;;;;;;;6.90;100.00;103807.63;5069336;28;20035;-71
2021/12/18 10:17:25;;;;;;;23.70;7.63;;;;;;;6.92;100.00;103816.50;5072462;28;20024;-71
2021/12/18 10:19:53;;;;;;;22.40;6.75;;;;;;;6.88;100.00;103809.22;5072175;28;20083;-71
2021/12/18 10:22:18;;;;;;;21.98;6.55;;;;;;;6.89;100.00;103803.16;5072121;28;20448;-71
2021/12/18 10:24:59;;;;;;;21.20;6.25;;;;;;;6.89;100.00;103803.16;5072084;28;20048;-69
2021/12/18 10:27:26;;;;;;;22.02;6.50;;;;;;;6.90;100.00;103805.00;5075009;28;20028;-69
2021/12/18 10:29:54;;;;;;;22.10;7.47;;;;;;;6.87;100.00;103809.13;5076034;28;20054;-70
2021/12/18 10:32:23;;;;;;;21.27;6.07;;;;;;;6.84;100.00;103803.66;5075927;28;20108;-71
2021/12/18 10:34:52;;;;;;;20.67;5.97;;;;;;;6.80;100.00;103805.16;5075808;28;20086;-71
2021/12/18 10:37:27;;;;;;;20.25;5.72;;;;;;;6.77;100.00;103803.25;5075476;28;20074;-70
2021/12/18 10:39:56;;;;;;;22.60;7.20;;;;;;;6.81;100.00;103804.38;5075326;28;20029;-68
2021/12/18 10:42:42;;;;;;;22.08;7.50;;;;;;;6.87;100.00;103809.13;5075483;28;20449;-70
2021/12/18 10:45:19;;;;;;;20.33;6.38;;;;;;;6.82;100.00;103808.81;5071872;28;20022;-69
2021/12/18 10:47:57;;;;;;;18.58;5.45;;;;;;;6.79;100.00;103809.53;5072681;28;20081;-68
2021/12/18 10:50:33;;;;;;;18.60;5.55;;;;;;;6.90;100.00;103805.00;5075563;28;20038;-67
2021/12/18 10:53:15;;;;;;;18.45;5.30;;;;;;;6.98;100.00;103795.88;5075229;28;20024;-67
2021/12/18 10:55:49;;;;;;;17.50;5.00;;;;;;;7.04;100.00;103798.00;5072107;28;20052;-68
2021/12/18 10:58:19;;;;;;;18.30;5.13;;;;;;;7.03;100.00;103798.81;5072136;28;20032;-69
2021/12/18 11:00:49;;;;;;;18.00;4.80;;;;;;;7.12;100.00;103790.59;5075510;28;20116;-70
2021/12/18 11:03:31;;;;;;;18.75;5.57;;;;;;;7.10;100.00;103793.13;5074937;28;20099;-70
2021/12/18 11:06:11;;;;;;;19.10;5.30;;;;;;;7.07;100.00;103787.69;5074061;28;20078;-68
2021/12/18 11:08:58;;;;;;;18.77;5.65;;;;;;;7.01;100.00;103789.91;5071103;28;20036;-69
2021/12/18 11:13:58;;;;;;;21.02;6.47;;;;;;;6.90;100.00;103801.44;5075250;28;20125;-69
2021/12/18 11:16:25;;;;;;;19.92;7.10;;;;;;;6.86;100.00;103789.81;5073707;28;20063;-67
2021/12/18 11:18:53;;;;;;;22.17;7.38;;;;;;;6.79;100.00;103793.75;5074824;28;20053;-68
2021/12/18 11:21:19;;;;;;;20.67;7.07;;;;;;;6.85;100.00;103790.63;5074619;28;20376;-69
2021/12/18 11:24:06;;;;;;;21.60;7.28;;;;;;;6.92;100.00;103789.31;5074812;28;20111;-68
2021/12/18 11:26:52;;;;;;;23.17;8.00;;;;;;;6.88;100.00;103793.44;5074796;28;20032;-68
2021/12/18 11:29:25;;;;;;;21.23;7.63;;;;;;;6.89;100.00;103786.50;5072574;28;20029;-68
2021/12/18 11:31:51;;;;;;;22.40;8.27;;;;;;;6.93;100.00;103781.53;5074667;28;20082;-67
2021/12/18 11:34:16;;;;;;;22.52;8.20;;;;;;;6.89;100.00;103784.75;5073452;28;20028;-70
2021/12/18 11:36:44;;;;;;;23.65;8.27;;;;;;;6.91;100.00;103790.13;5074297;28;20498;-68
2021/12/18 11:39:12;;;;;;;22.35;8.40;;;;;;;6.89;100.00;103787.38;5073636;28;20081;-67
2021/12/18 11:41:39;;;;;;;23.25;8.07;;;;;;;6.85;100.00;103782.72;5070375;28;20399;-70
2021/12/18 11:44:44;;;;;;;24.15;8.20;;;;;;;6.87;100.00;103781.09;5073595;28;20036;-68
2021/12/18 11:47:36;;;;;;;22.70;8.35;;;;;;;6.88;100.00;103777.66;5044296;28;20033;-70
2021/12/18 11:50:21;;;;;;;23.05;8.05;;;;;;;6.79;100.00;103782.31;5051609;28;20478;-71
2021/12/18 11:53:01;;;;;;;22.25;7.82;;;;;;;6.78;100.00;103777.88;5049387;28;20127;-69
2021/12/18 11:55:36;;;;;;;22.55;8.10;;;;;;;6.77;100.00;103783.94;5051864;28;20025;-68
2021/12/18 11:58:13;;;;;;;21.20;7.15;;;;;;;6.75;100.00;103772.41;5051876;28;20045;-68
2021/12/18 12:00:45;;;;;;;20.73;6.72;;;;;;;6.74;100.00;103773.22;5051974;28;20418;-69
2021/12/18 12:03:13;;;;;;;20.25;7.13;;;;;;;6.74;100.00;103762.69;5048321;28;20041;-70